sensor_id;sensor_type;location;lat;lon;timestamp;pressure;altitude;pressure_sealevel;temperature
71630;BMP280;59479;51.902;8.212;2023-04-25T00:02:04;100233.16;;;9.07
71630;BMP280;59479;51.902;8.212;2023-04-25T00:04:30;100232.31;;;9.17
71630;BMP280;59479;51.902;8.212;2023-04-25T00:06:59;100238.16;;;9.11
71630;BMP280;59479;51.902;8.212;2023-04-25T00:09:27;100238.16;;;9.07
71630;BMP280;59479;51.902;8.212;2023-04-25T00:11:52;100238.16;;;9.10
71630;BMP280;59479;51.902;8.212;2023-04-25T00:14:18;100238.16;;;9.14
71630;BMP280;59479;51.902;8.212;2023-04-25T00:16:43;100249.84;;;9.18
71630;BMP280;59479;51.902;8.212;2023-04-25T00:19:09;100241.50;;;9.15
71630;BMP280;59479;51.902;8.212;2023-04-25T00:21:35;100244.84;;;9.02
71630;BMP280;59479;51.902;8.212;2023-04-25T00:24:00;100250.72;;;9.14
71630;BMP280;59479;51.902;8.212;2023-04-25T00:26:26;100256.53;;;9.00
71630;BMP280;59479;51.902;8.212;2023-04-25T00:28:52;100246.50;;;9.00
71630;BMP280;59479;51.902;8.212;2023-04-25T00:31:17;100249.88;;;9.08
71630;BMP280;59479;51.902;8.212;2023-04-25T00:33:42;100249.84;;;9.15
71630;BMP280;59479;51.902;8.212;2023-04-25T00:36:08;100251.53;;;9.18
71630;BMP280;59479;51.902;8.212;2023-04-25T00:38:34;100246.50;;;9.13
71630;BMP280;59479;51.902;8.212;2023-04-25T00:40:59;100251.53;;;9.09
71630;BMP280;59479;51.902;8.212;2023-04-25T00:43:26;100249.84;;;9.03
71630;BMP280;59479;51.902;8.212;2023-04-25T00:45:52;100240.66;;;9.13
71630;BMP280;59479;51.902;8.212;2023-04-25T00:48:17;100246.50;;;9.09
71630;BMP280;59479;51.902;8.212;2023-04-25T00:50:51;100243.16;;;9.07
71630;BMP280;59479;51.902;8.212;2023-04-25T00:53:16;100240.66;;;9.11
71630;BMP280;59479;51.902;8.212;2023-04-25T00:55:42;100246.50;;;9.09
71630;BMP280;59479;51.902;8.212;2023-04-25T00:58:07;100244.00;;;9.09
71630;BMP280;59479;51.902;8.212;2023-04-25T01:00:32;100244.84;;;9.06
71630;BMP280;59479;51.902;8.212;2023-04-25T01:02:58;100240.69;;;9.14
71630;BMP280;59479;51.902;8.212;2023-04-25T01:05:23;100240.66;;;9.07
71630;BMP280;59479;51.902;8.212;2023-04-25T01:07:49;100237.31;;;9.03
71630;BMP280;59479;51.902;8.212;2023-04-25T01:10:14;100234.81;;;9.08
71630;BMP280;59479;51.902;8.212;2023-04-25T01:12:40;100241.50;;;8.97
71630;BMP280;59479;51.902;8.212;2023-04-25T01:15:06;100236.50;;;9.01
71630;BMP280;59479;51.902;8.212;2023-04-25T01:17:33;100241.50;;;8.98
71630;BMP280;59479;51.902;8.212;2023-04-25T01:19:59;100244.00;;;9.00
71630;BMP280;59479;51.902;8.212;2023-04-25T01:22:25;100239.84;;;9.05
71630;BMP280;59479;51.902;8.212;2023-04-25T01:24:50;100243.16;;;8.93
71630;BMP280;59479;51.902;8.212;2023-04-25T01:27:16;100236.47;;;8.97
71630;BMP280;59479;51.902;8.212;2023-04-25T01:29:42;100243.19;;;8.96
71630;BMP280;59479;51.902;8.212;2023-04-25T01:32:08;100237.34;;;8.99
71630;BMP280;59479;51.902;8.212;2023-04-25T01:34:33;100240.66;;;9.08
71630;BMP280;59479;51.902;8.212;2023-04-25T01:36:59;100248.19;;;9.10
71630;BMP280;59479;51.902;8.212;2023-04-25T01:39:25;100241.50;;;9.12
71630;BMP280;59479;51.902;8.212;2023-04-25T01:41:50;100242.34;;;9.18
71630;BMP280;59479;51.902;8.212;2023-04-25T01:44:16;100245.69;;;9.10
71630;BMP280;59479;51.902;8.212;2023-04-25T01:46:41;100254.06;;;9.06
71630;BMP280;59479;51.902;8.212;2023-04-25T01:49:07;100254.03;;;9.09
71630;BMP280;59479;51.902;8.212;2023-04-25T01:51:32;100259.03;;;9.10
71630;BMP280;59479;51.902;8.212;2023-04-25T01:53:58;100255.72;;;8.98
71630;BMP280;59479;51.902;8.212;2023-04-25T01:56:23;100260.72;;;8.99
71630;BMP280;59479;51.902;8.212;2023-04-25T01:58:49;100264.06;;;8.98
71630;BMP280;59479;51.902;8.212;2023-04-25T02:01:14;100261.56;;;9.12
71630;BMP280;59479;51.902;8.212;2023-04-25T02:03:39;100269.09;;;9.18
71630;BMP280;59479;51.902;8.212;2023-04-25T02:06:05;100269.09;;;9.07
71630;BMP280;59479;51.902;8.212;2023-04-25T02:08:30;100268.25;;;9.13
71630;BMP280;59479;51.902;8.212;2023-04-25T02:10:56;100269.94;;;9.12
71630;BMP280;59479;51.902;8.212;2023-04-25T02:13:21;100268.25;;;9.13
71630;BMP280;59479;51.902;8.212;2023-04-25T02:15:47;100278.25;;;9.07
71630;BMP280;59479;51.902;8.212;2023-04-25T02:18:12;100273.25;;;9.01
71630;BMP280;59479;51.902;8.212;2023-04-25T02:20:38;100277.44;;;8.99
71630;BMP280;59479;51.902;8.212;2023-04-25T02:23:03;100278.25;;;9.08
71630;BMP280;59479;51.902;8.212;2023-04-25T02:25:29;100284.94;;;9.14
71630;BMP280;59479;51.902;8.212;2023-04-25T02:27:54;100286.63;;;9.15
71630;BMP280;59479;51.902;8.212;2023-04-25T02:30:19;100279.94;;;9.18
71630;BMP280;59479;51.902;8.212;2023-04-25T02:32:45;100285.81;;;9.17
71630;BMP280;59479;51.902;8.212;2023-04-25T02:35:11;100287.44;;;9.14
71630;BMP280;59479;51.902;8.212;2023-04-25T02:37:37;100283.28;;;9.10
71630;BMP280;59479;51.902;8.212;2023-04-25T02:40:03;100279.13;;;9.06
71630;BMP280;59479;51.902;8.212;2023-04-25T02:42:30;100286.63;;;9.12
71630;BMP280;59479;51.902;8.212;2023-04-25T02:44:55;100286.63;;;9.06
71630;BMP280;59479;51.902;8.212;2023-04-25T02:47:20;100281.59;;;9.00
71630;BMP280;59479;51.902;8.212;2023-04-25T02:49:46;100283.28;;;8.98
71630;BMP280;59479;51.902;8.212;2023-04-25T02:52:11;100279.09;;;9.01
71630;BMP280;59479;51.902;8.212;2023-04-25T02:54:38;100277.41;;;9.02
71630;BMP280;59479;51.902;8.212;2023-04-25T02:57:04;100283.28;;;9.13
71630;BMP280;59479;51.902;8.212;2023-04-25T02:59:29;100279.94;;;9.11
71630;BMP280;59479;51.902;8.212;2023-04-25T03:01:54;100284.94;;;9.14
71630;BMP280;59479;51.902;8.212;2023-04-25T03:04:20;100289.97;;;9.02
71630;BMP280;59479;51.902;8.212;2023-04-25T03:06:46;100290.81;;;9.01
71630;BMP280;59479;51.902;8.212;2023-04-25T03:09:11;100287.44;;;9.02
71630;BMP280;59479;51.902;8.212;2023-04-25T03:11:38;100294.16;;;9.07
71630;BMP280;59479;51.902;8.212;2023-04-25T03:14:04;100303.31;;;9.07
71630;BMP280;59479;51.902;8.212;2023-04-25T03:16:29;100298.31;;;9.04
71630;BMP280;59479;51.902;8.212;2023-04-25T03:18:54;100308.34;;;9.10
71630;BMP280;59479;51.902;8.212;2023-04-25T03:21:20;100309.19;;;9.13
71630;BMP280;59479;51.902;8.212;2023-04-25T03:23:45;100299.97;;;9.00
71630;BMP280;59479;51.902;8.212;2023-04-25T03:26:10;100306.69;;;9.06
71630;BMP280;59479;51.902;8.212;2023-04-25T03:28:36;100312.53;;;9.15
71630;BMP280;59479;51.902;8.212;2023-04-25T03:31:01;100312.53;;;9.14
71630;BMP280;59479;51.902;8.212;2023-04-25T03:33:26;100322.56;;;9.14
71630;BMP280;59479;51.902;8.212;2023-04-25T03:35:52;100325.03;;;9.02
71630;BMP280;59479;51.902;8.212;2023-04-25T03:38:18;100320.88;;;9.07
71630;BMP280;59479;51.902;8.212;2023-04-25T03:40:43;100335.94;;;9.10
71630;BMP280;59479;51.902;8.212;2023-04-25T03:43:08;100336.75;;;9.09
71630;BMP280;59479;51.902;8.212;2023-04-25T03:45:34;100335.09;;;9.08
71630;BMP280;59479;51.902;8.212;2023-04-25T03:47:59;100326.72;;;9.12
71630;BMP280;59479;51.902;8.212;2023-04-25T03:50:24;100340.94;;;9.13
71630;BMP280;59479;51.902;8.212;2023-04-25T03:52:50;100340.94;;;8.99
71630;BMP280;59479;51.902;8.212;2023-04-25T03:55:15;100350.13;;;8.96
71630;BMP280;59479;51.902;8.212;2023-04-25T03:57:40;100355.13;;;8.93
71630;BMP280;59479;51.902;8.212;2023-04-25T04:00:06;100356.78;;;8.89
71630;BMP280;59479;51.902;8.212;2023-04-25T04:02:32;100356.75;;;8.76
71630;BMP280;59479;51.902;8.212;2023-04-25T04:04:59;100359.25;;;8.76
71630;BMP280;59479;51.902;8.212;2023-04-25T04:07:24;100366.78;;;8.76
71630;BMP280;59479;51.902;8.212;2023-04-25T04:09:49;100374.25;;;8.70
71630;BMP280;59479;51.902;8.212;2023-04-25T04:12:15;100367.59;;;8.77
71630;BMP280;59479;51.902;8.212;2023-04-25T04:14:40;100363.41;;;8.73
71630;BMP280;59479;51.902;8.212;2023-04-25T04:17:05;100369.25;;;8.72
71630;BMP280;59479;51.902;8.212;2023-04-25T04:19:31;100373.41;;;8.65
71630;BMP280;59479;51.902;8.212;2023-04-25T04:21:56;100371.72;;;8.61
71630;BMP280;59479;51.902;8.212;2023-04-25T04:24:21;100378.41;;;8.67
71630;BMP280;59479;51.902;8.212;2023-04-25T04:26:47;100376.78;;;8.67
71630;BMP280;59479;51.902;8.212;2023-04-25T04:29:12;100380.09;;;8.72
71630;BMP280;59479;51.902;8.212;2023-04-25T04:31:45;100385.09;;;8.63
71630;BMP280;59479;51.902;8.212;2023-04-25T04:34:11;100390.94;;;8.64
71630;BMP280;59479;51.902;8.212;2023-04-25T04:36:36;100385.91;;;8.64
71630;BMP280;59479;51.902;8.212;2023-04-25T04:39:01;100391.78;;;8.64
71630;BMP280;59479;51.902;8.212;2023-04-25T04:41:28;100392.63;;;8.69
71630;BMP280;59479;51.902;8.212;2023-04-25T04:43:53;100389.28;;;8.69
71630;BMP280;59479;51.902;8.212;2023-04-25T04:46:21;100390.94;;;8.68
71630;BMP280;59479;51.902;8.212;2023-04-25T04:48:46;100382.66;;;8.82
71630;BMP280;59479;51.902;8.212;2023-04-25T04:51:12;100389.34;;;8.85
71630;BMP280;59479;51.902;8.212;2023-04-25T04:53:37;100396.84;;;8.85
71630;BMP280;59479;51.902;8.212;2023-04-25T04:56:03;100391.03;;;8.86
71630;BMP280;59479;51.902;8.212;2023-04-25T04:58:28;100401.88;;;8.86
71630;BMP280;59479;51.902;8.212;2023-04-25T05:00:54;100400.25;;;8.99
71630;BMP280;59479;51.902;8.212;2023-04-25T05:03:20;100411.13;;;8.99
71630;BMP280;59479;51.902;8.212;2023-04-25T05:05:45;100411.09;;;8.98
71630;BMP280;59479;51.902;8.212;2023-04-25T05:08:11;100421.16;;;9.07
71630;BMP280;59479;51.902;8.212;2023-04-25T05:10:36;100428.66;;;8.98
71630;BMP280;59479;51.902;8.212;2023-04-25T05:13:01;100432.84;;;9.05
71630;BMP280;59479;51.902;8.212;2023-04-25T05:15:27;100430.25;;;8.87
71630;BMP280;59479;51.902;8.212;2023-04-25T05:17:52;100439.44;;;8.79
71630;BMP280;59479;51.902;8.212;2023-04-25T05:20:18;100441.97;;;8.88
71630;BMP280;59479;51.902;8.212;2023-04-25T05:22:46;100438.59;;;8.80
71630;BMP280;59479;51.902;8.212;2023-04-25T05:25:11;100442.00;;;8.91
71630;BMP280;59479;51.902;8.212;2023-04-25T05:27:37;100441.19;;;8.98
71630;BMP280;59479;51.902;8.212;2023-04-25T05:30:02;100444.53;;;9.01
71630;BMP280;59479;51.902;8.212;2023-04-25T05:32:27;100450.31;;;8.87
71630;BMP280;59479;51.902;8.212;2023-04-25T05:34:53;100447.84;;;8.91
71630;BMP280;59479;51.902;8.212;2023-04-25T05:37:18;100444.50;;;8.98
71630;BMP280;59479;51.902;8.212;2023-04-25T05:39:43;100455.38;;;9.02
71630;BMP280;59479;51.902;8.212;2023-04-25T05:42:09;100460.41;;;8.99
71630;BMP280;59479;51.902;8.212;2023-04-25T05:44:34;100458.63;;;8.78
71630;BMP280;59479;51.902;8.212;2023-04-25T05:46:59;100452.00;;;8.88
71630;BMP280;59479;51.902;8.212;2023-04-25T05:49:25;100453.66;;;8.83
71630;BMP280;59479;51.902;8.212;2023-04-25T05:51:50;100462.84;;;8.87
71630;BMP280;59479;51.902;8.212;2023-04-25T05:54:15;100462.00;;;8.86
71630;BMP280;59479;51.902;8.212;2023-04-25T05:56:41;100464.50;;;8.82
71630;BMP280;59479;51.902;8.212;2023-04-25T05:59:06;100467.88;;;8.91
71630;BMP280;59479;51.902;8.212;2023-04-25T06:01:31;100468.72;;;8.95
71630;BMP280;59479;51.902;8.212;2023-04-25T06:03:57;100476.22;;;8.84
71630;BMP280;59479;51.902;8.212;2023-04-25T06:06:22;100479.56;;;8.88
71630;BMP280;59479;51.902;8.212;2023-04-25T06:08:47;100482.09;;;8.89
71630;BMP280;59479;51.902;8.212;2023-04-25T06:11:13;100482.06;;;8.88
71630;BMP280;59479;51.902;8.212;2023-04-25T06:13:38;100483.75;;;8.92
71630;BMP280;59479;51.902;8.212;2023-04-25T06:16:03;100479.63;;;9.01
71630;BMP280;59479;51.902;8.212;2023-04-25T06:18:29;100491.31;;;8.98
71630;BMP280;59479;51.902;8.212;2023-04-25T06:20:55;100502.97;;;8.84
71630;BMP280;59479;51.902;8.212;2023-04-25T06:23:20;100497.13;;;8.88
71630;BMP280;59479;51.902;8.212;2023-04-25T06:25:46;100500.38;;;8.74
71630;BMP280;59479;51.902;8.212;2023-04-25T06:28:11;100502.94;;;8.81
71630;BMP280;59479;51.902;8.212;2023-04-25T06:30:36;100500.50;;;8.96
71630;BMP280;59479;51.902;8.212;2023-04-25T06:33:01;100492.13;;;8.95
71630;BMP280;59479;51.902;8.212;2023-04-25T06:35:27;100500.50;;;8.96
71630;BMP280;59479;51.902;8.212;2023-04-25T06:37:52;100510.53;;;9.02
71630;BMP280;59479;51.902;8.212;2023-04-25T06:40:17;100503.03;;;9.06
71630;BMP280;59479;51.902;8.212;2023-04-25T06:42:43;100505.53;;;9.05
71630;BMP280;59479;51.902;8.212;2023-04-25T06:45:08;100501.34;;;8.99
71630;BMP280;59479;51.902;8.212;2023-04-25T06:47:34;100517.19;;;8.97
71630;BMP280;59479;51.902;8.212;2023-04-25T06:49:59;100515.56;;;8.99
71630;BMP280;59479;51.902;8.212;2023-04-25T06:52:24;100505.56;;;9.08
71630;BMP280;59479;51.902;8.212;2023-04-25T06:54:50;100509.72;;;9.10
71630;BMP280;59479;51.902;8.212;2023-04-25T06:57:15;100516.47;;;9.17
71630;BMP280;59479;51.902;8.212;2023-04-25T06:59:40;100519.75;;;9.10
71630;BMP280;59479;51.902;8.212;2023-04-25T07:02:06;100520.59;;;9.09
71630;BMP280;59479;51.902;8.212;2023-04-25T07:04:31;100531.44;;;9.02
71630;BMP280;59479;51.902;8.212;2023-04-25T07:06:56;100531.44;;;9.05
71630;BMP280;59479;51.902;8.212;2023-04-25T07:09:22;100537.34;;;9.15
71630;BMP280;59479;51.902;8.212;2023-04-25T07:11:47;100531.50;;;9.21
71630;BMP280;59479;51.902;8.212;2023-04-25T07:14:12;100536.56;;;9.27
71630;BMP280;59479;51.902;8.212;2023-04-25T07:16:38;100536.53;;;9.21
71630;BMP280;59479;51.902;8.212;2023-04-25T07:19:03;100534.84;;;9.22
71630;BMP280;59479;51.902;8.212;2023-04-25T07:21:28;100535.72;;;9.30
71630;BMP280;59479;51.902;8.212;2023-04-25T07:23:56;100534.88;;;9.21
71630;BMP280;59479;51.902;8.212;2023-04-25T07:26:21;100539.03;;;9.23
71630;BMP280;59479;51.902;8.212;2023-04-25T07:28:46;100549.09;;;9.33
71630;BMP280;59479;51.902;8.212;2023-04-25T07:31:14;100544.94;;;9.37
71630;BMP280;59479;51.902;8.212;2023-04-25T07:33:42;100551.59;;;9.27
71630;BMP280;59479;51.902;8.212;2023-04-25T07:36:07;100558.28;;;9.28
71630;BMP280;59479;51.902;8.212;2023-04-25T07:38:33;100561.63;;;9.24
71630;BMP280;59479;51.902;8.212;2023-04-25T07:40:58;100558.31;;;9.33
71630;BMP280;59479;51.902;8.212;2023-04-25T07:43:23;100554.13;;;9.32
71630;BMP280;59479;51.902;8.212;2023-04-25T07:45:49;100562.50;;;9.32
71630;BMP280;59479;51.902;8.212;2023-04-25T07:48:17;100559.19;;;9.41
71630;BMP280;59479;51.902;8.212;2023-04-25T07:50:46;100562.50;;;9.32
71630;BMP280;59479;51.902;8.212;2023-04-25T07:53:11;100572.56;;;9.44
71630;BMP280;59479;51.902;8.212;2023-04-25T07:55:37;100567.50;;;9.37
71630;BMP280;59479;51.902;8.212;2023-04-25T07:58:08;100586.72;;;9.35
71630;BMP280;59479;51.902;8.212;2023-04-25T08:00:36;100574.22;;;9.39
71630;BMP280;59479;51.902;8.212;2023-04-25T08:03:14;100571.75;;;9.51
71630;BMP280;59479;51.902;8.212;2023-04-25T08:05:54;100583.53;;;9.65
71630;BMP280;59479;51.902;8.212;2023-04-25T08:08:20;100573.44;;;9.60
71630;BMP280;59479;51.902;8.212;2023-04-25T08:10:46;100582.69;;;9.68
71630;BMP280;59479;51.902;8.212;2023-04-25T08:13:17;100596.84;;;9.59
71630;BMP280;59479;51.902;8.212;2023-04-25T08:15:47;100591.06;;;9.73
71630;BMP280;59479;51.902;8.212;2023-04-25T08:18:15;100594.41;;;9.69
71630;BMP280;59479;51.902;8.212;2023-04-25T08:20:53;100596.91;;;9.75
71630;BMP280;59479;51.902;8.212;2023-04-25T08:23:18;100596.94;;;9.85
71630;BMP280;59479;51.902;8.212;2023-04-25T08:25:46;100600.34;;;9.98
71630;BMP280;59479;51.902;8.212;2023-04-25T08:28:27;100599.50;;;9.93
71630;BMP280;59479;51.902;8.212;2023-04-25T08:31:04;100607.88;;;10.04
71630;BMP280;59479;51.902;8.212;2023-04-25T08:33:40;100609.56;;;9.93
71630;BMP280;59479;51.902;8.212;2023-04-25T08:36:08;100618.75;;;9.97
71630;BMP280;59479;51.902;8.212;2023-04-25T08:38:34;100622.16;;;10.09
71630;BMP280;59479;51.902;8.212;2023-04-25T08:40:59;100621.28;;;10.04
71630;BMP280;59479;51.902;8.212;2023-04-25T08:43:26;100615.41;;;10.05
71630;BMP280;59479;51.902;8.212;2023-04-25T08:45:53;100629.66;;;10.07
71630;BMP280;59479;51.902;8.212;2023-04-25T08:48:26;100622.94;;;9.93
71630;BMP280;59479;51.902;8.212;2023-04-25T08:51:07;100620.44;;;10.04
71630;BMP280;59479;51.902;8.212;2023-04-25T08:53:33;100628.00;;;10.02
71630;BMP280;59479;51.902;8.212;2023-04-25T08:56:11;100639.72;;;10.13
71630;BMP280;59479;51.902;8.212;2023-04-25T08:58:48;100631.38;;;10.26
71630;BMP280;59479;51.902;8.212;2023-04-25T09:01:17;100644.75;;;10.18
71630;BMP280;59479;51.902;8.212;2023-04-25T09:03:48;100647.25;;;10.13
71630;BMP280;59479;51.902;8.212;2023-04-25T09:06:17;100643.09;;;10.27
71630;BMP280;59479;51.902;8.212;2023-04-25T09:08:43;100649.81;;;10.25
71630;BMP280;59479;51.902;8.212;2023-04-25T09:11:08;100664.03;;;10.31
71630;BMP280;59479;51.902;8.212;2023-04-25T09:13:34;100658.19;;;10.38
71630;BMP280;59479;51.902;8.212;2023-04-25T09:16:02;100658.16;;;10.45
71630;BMP280;59479;51.902;8.212;2023-04-25T09:18:48;100661.56;;;10.47
71630;BMP280;59479;51.902;8.212;2023-04-25T09:21:23;100656.50;;;10.48
71630;BMP280;59479;51.902;8.212;2023-04-25T09:23:49;100655.66;;;10.58
71630;BMP280;59479;51.902;8.212;2023-04-25T09:26:20;100681.66;;;10.47
71630;BMP280;59479;51.902;8.212;2023-04-25T09:31:37;100672.41;;;10.53
71630;BMP280;59479;51.902;8.212;2023-04-25T09:34:03;100667.41;;;10.56
71630;BMP280;59479;51.902;8.212;2023-04-25T09:36:39;100676.63;;;10.59
71630;BMP280;59479;51.902;8.212;2023-04-25T09:39:12;100664.91;;;10.76
71630;BMP280;59479;51.902;8.212;2023-04-25T09:41:41;100670.78;;;10.81
71630;BMP280;59479;51.902;8.212;2023-04-25T09:44:12;100672.44;;;10.99
71630;BMP280;59479;51.902;8.212;2023-04-25T09:46:41;100678.28;;;10.88
71630;BMP280;59479;51.902;8.212;2023-04-25T09:49:14;100675.78;;;11.09
71630;BMP280;59479;51.902;8.212;2023-04-25T09:51:40;100664.84;;;11.22
71630;BMP280;59479;51.902;8.212;2023-04-25T09:54:14;100674.91;;;11.14
71630;BMP280;59479;51.902;8.212;2023-04-25T09:56:42;100681.63;;;11.09
71630;BMP280;59479;51.902;8.212;2023-04-25T09:59:15;100695.06;;;11.02
71630;BMP280;59479;51.902;8.212;2023-04-25T10:01:47;100685.84;;;11.04
71630;BMP280;59479;51.902;8.212;2023-04-25T10:04:19;100690.03;;;11.07
71630;BMP280;59479;51.902;8.212;2023-04-25T10:06:55;100700.06;;;11.11
71630;BMP280;59479;51.902;8.212;2023-04-25T10:09:26;100694.22;;;11.08
71630;BMP280;59479;51.902;8.212;2023-04-25T10:11:52;100696.72;;;11.03
71630;BMP280;59479;51.902;8.212;2023-04-25T10:14:21;100707.63;;;11.13
71630;BMP280;59479;51.902;8.212;2023-04-25T10:16:50;100705.09;;;11.08
71630;BMP280;59479;51.902;8.212;2023-04-25T10:19:27;100705.94;;;11.04
71630;BMP280;59479;51.902;8.212;2023-04-25T10:22:09;100705.94;;;11.15
71630;BMP280;59479;51.902;8.212;2023-04-25T10:24:37;100703.44;;;11.06
71630;BMP280;59479;51.902;8.212;2023-04-25T10:27:12;100702.63;;;11.07
71630;BMP280;59479;51.902;8.212;2023-04-25T10:29:41;100710.13;;;11.17
71630;BMP280;59479;51.902;8.212;2023-04-25T10:32:11;100708.47;;;11.22
71630;BMP280;59479;51.902;8.212;2023-04-25T10:34:41;100706.75;;;11.20
71630;BMP280;59479;51.902;8.212;2023-04-25T10:37:10;100705.13;;;11.01
71630;BMP280;59479;51.902;8.212;2023-04-25T10:39:40;100703.44;;;10.89
71630;BMP280;59479;51.902;8.212;2023-04-25T10:42:09;100703.44;;;10.89
71630;BMP280;59479;51.902;8.212;2023-04-25T10:44:37;100705.97;;;11.06
71630;BMP280;59479;51.902;8.212;2023-04-25T10:47:09;100708.47;;;11.09
71630;BMP280;59479;51.902;8.212;2023-04-25T10:49:36;100703.44;;;11.04
71630;BMP280;59479;51.902;8.212;2023-04-25T10:52:34;100706.75;;;11.18
71630;BMP280;59479;51.902;8.212;2023-04-25T10:55:02;100707.59;;;11.33
71630;BMP280;59479;51.902;8.212;2023-04-25T10:57:44;100710.97;;;11.47
71630;BMP280;59479;51.902;8.212;2023-04-25T11:00:13;100705.09;;;11.47
71630;BMP280;59479;51.902;8.212;2023-04-25T11:02:42;100700.06;;;11.47
71630;BMP280;59479;51.902;8.212;2023-04-25T11:05:10;100709.25;;;11.36
71630;BMP280;59479;51.902;8.212;2023-04-25T11:07:52;100706.75;;;11.30
71630;BMP280;59479;51.902;8.212;2023-04-25T11:10:42;100715.16;;;11.32
71630;BMP280;59479;51.902;8.212;2023-04-25T11:13:10;100706.78;;;11.21
71630;BMP280;59479;51.902;8.212;2023-04-25T11:15:39;100719.34;;;11.40
71630;BMP280;59479;51.902;8.212;2023-04-25T11:18:07;100727.72;;;11.44
71630;BMP280;59479;51.902;8.212;2023-04-25T11:20:36;100730.25;;;11.47
71630;BMP280;59479;51.902;8.212;2023-04-25T11:23:22;100721.84;;;11.49
71630;BMP280;59479;51.902;8.212;2023-04-25T11:25:51;100728.53;;;11.44
71630;BMP280;59479;51.902;8.212;2023-04-25T11:28:23;100724.38;;;11.37
71630;BMP280;59479;51.902;8.212;2023-04-25T11:30:49;100728.53;;;11.41
71630;BMP280;59479;51.902;8.212;2023-04-25T11:33:16;100730.22;;;11.50
71630;BMP280;59479;51.902;8.212;2023-04-25T11:35:42;100729.41;;;11.42
71630;BMP280;59479;51.902;8.212;2023-04-25T11:38:12;100737.78;;;11.42
71630;BMP280;59479;51.902;8.212;2023-04-25T11:40:41;100729.41;;;11.34
71630;BMP280;59479;51.902;8.212;2023-04-25T11:43:06;100740.28;;;11.44
71630;BMP280;59479;51.902;8.212;2023-04-25T11:45:36;100745.31;;;11.44
71630;BMP280;59479;51.902;8.212;2023-04-25T11:48:04;100749.53;;;11.34
71630;BMP280;59479;51.902;8.212;2023-04-25T11:50:33;100738.63;;;11.32
71630;BMP280;59479;51.902;8.212;2023-04-25T11:52:58;100733.56;;;11.43
71630;BMP280;59479;51.902;8.212;2023-04-25T11:55:23;100741.16;;;11.46
71630;BMP280;59479;51.902;8.212;2023-04-25T11:57:52;100739.47;;;11.40
71630;BMP280;59479;51.902;8.212;2023-04-25T12:00:20;100741.16;;;11.49
71630;BMP280;59479;51.902;8.212;2023-04-25T12:02:53;100751.22;;;11.46
71630;BMP280;59479;51.902;8.212;2023-04-25T12:05:27;100743.66;;;11.52
71630;BMP280;59479;51.902;8.212;2023-04-25T12:07:52;100752.03;;;11.57
71630;BMP280;59479;51.902;8.212;2023-04-25T12:10:24;100755.38;;;11.68
71630;BMP280;59479;51.902;8.212;2023-04-25T12:12:52;100755.38;;;11.62
71630;BMP280;59479;51.902;8.212;2023-04-25T12:15:25;100752.84;;;11.66
71630;BMP280;59479;51.902;8.212;2023-04-25T12:17:52;100751.16;;;11.67
71630;BMP280;59479;51.902;8.212;2023-04-25T12:20:21;100766.31;;;11.64
71630;BMP280;59479;51.902;8.212;2023-04-25T12:22:49;100758.75;;;11.43
71630;BMP280;59479;51.902;8.212;2023-04-25T12:28:23;100771.34;;;11.58
71630;BMP280;59479;51.902;8.212;2023-04-25T12:30:59;100751.19;;;11.64
71630;BMP280;59479;51.902;8.212;2023-04-25T12:33:43;100762.94;;;11.53
71630;BMP280;59479;51.902;8.212;2023-04-25T12:36:20;100762.94;;;11.57
71630;BMP280;59479;51.902;8.212;2023-04-25T12:38:48;100760.41;;;11.65
71630;BMP280;59479;51.902;8.212;2023-04-25T12:41:14;100755.34;;;11.76
71630;BMP280;59479;51.902;8.212;2023-04-25T12:43:46;100764.56;;;11.80
71630;BMP280;59479;51.902;8.212;2023-04-25T12:46:11;100761.22;;;11.78
71630;BMP280;59479;51.902;8.212;2023-04-25T12:48:39;100764.56;;;11.79
71630;BMP280;59479;51.902;8.212;2023-04-25T12:51:05;100767.09;;;11.83
71630;BMP280;59479;51.902;8.212;2023-04-25T12:53:37;100760.38;;;11.76
71630;BMP280;59479;51.902;8.212;2023-04-25T12:56:04;100762.03;;;11.86
71630;BMP280;59479;51.902;8.212;2023-04-25T12:58:29;100756.09;;;11.98
71630;BMP280;59479;51.902;8.212;2023-04-25T13:00:55;100759.44;;;12.06
71630;BMP280;59479;51.902;8.212;2023-04-25T13:03:20;100754.38;;;12.12
71630;BMP280;59479;51.902;8.212;2023-04-25T13:05:54;100756.06;;;12.14
71630;BMP280;59479;51.902;8.212;2023-04-25T13:08:22;100759.38;;;12.17
71630;BMP280;59479;51.902;8.212;2023-04-25T13:10:47;100753.47;;;12.29
71630;BMP280;59479;51.902;8.212;2023-04-25T13:13:13;100761.03;;;12.21
71630;BMP280;59479;51.902;8.212;2023-04-25T13:15:44;100750.88;;;12.39
71630;BMP280;59479;51.902;8.212;2023-04-25T13:18:10;100750.03;;;12.42
71630;BMP280;59479;51.902;8.212;2023-04-25T13:20:36;100755.91;;;12.45
71630;BMP280;59479;51.902;8.212;2023-04-25T13:23:01;100750.72;;;12.61
71630;BMP280;59479;51.902;8.212;2023-04-25T13:25:27;100754.03;;;12.77
71630;BMP280;59479;51.902;8.212;2023-04-25T13:27:59;100758.25;;;12.73
71630;BMP280;59479;51.902;8.212;2023-04-25T13:30:36;100764.13;;;12.69
71630;BMP280;59479;51.902;8.212;2023-04-25T13:33:02;100771.75;;;12.63
71630;BMP280;59479;51.902;8.212;2023-04-25T13:35:35;100783.66;;;12.35
71630;BMP280;59479;51.902;8.212;2023-04-25T13:38:01;100783.69;;;12.29
71630;BMP280;59479;51.902;8.212;2023-04-25T13:40:29;100787.06;;;12.29
71630;BMP280;59479;51.902;8.212;2023-04-25T13:42:57;100783.69;;;12.27
71630;BMP280;59479;51.902;8.212;2023-04-25T13:45:26;100790.44;;;12.21
71630;BMP280;59479;51.902;8.212;2023-04-25T13:47:54;100788.78;;;12.18
71630;BMP280;59479;51.902;8.212;2023-04-25T13:50:22;100791.38;;;12.02
71630;BMP280;59479;51.902;8.212;2023-04-25T13:52:50;100793.88;;;11.96
71630;BMP280;59479;51.902;8.212;2023-04-25T13:55:16;100805.66;;;11.96
71630;BMP280;59479;51.902;8.212;2023-04-25T13:57:42;100807.38;;;11.77
71630;BMP280;59479;51.902;8.212;2023-04-25T14:00:14;100809.06;;;11.78
71630;BMP280;59479;51.902;8.212;2023-04-25T14:02:50;100814.06;;;11.84
71630;BMP280;59479;51.902;8.212;2023-04-25T14:05:33;100815.75;;;11.76
71630;BMP280;59479;51.902;8.212;2023-04-25T14:08:13;100823.31;;;11.84
71630;BMP280;59479;51.902;8.212;2023-04-25T14:10:48;100825.00;;;11.72
71630;BMP280;59479;51.902;8.212;2023-04-25T14:13:45;100824.19;;;11.67